sensor_id;sensor_type;location;lat;lon;timestamp;P1;durP1;ratioP1;P2;durP2;ratioP2
13590;SDS011;6866;50.778;7.206;2022-07-23T00:00:01;21.98;;;13.25;;
13590;SDS011;6866;50.778;7.206;2022-07-23T00:02:27;19.80;;;13.75;;
13590;SDS011;6866;50.778;7.206;2022-07-23T00:04:53;20.15;;;14.07;;
13590;SDS011;6866;50.778;7.206;2022-07-23T00:07:19;19.98;;;13.68;;
13590;SDS011;6866;50.778;7.206;2022-07-23T00:09:44;19.15;;;13.10;;
13590;SDS011;6866;50.778;7.206;2022-07-23T00:12:10;20.30;;;13.38;;
13590;SDS011;6866;50.778;7.206;2022-07-23T00:14:35;21.30;;;14.40;;
13590;SDS011;6866;50.778;7.206;2022-07-23T00:17:01;20.33;;;13.68;;
13590;SDS011;6866;50.778;7.206;2022-07-23T00:19:26;19.45;;;13.90;;
13590;SDS011;6866;50.778;7.206;2022-07-23T00:21:53;20.02;;;14.27;;
13590;SDS011;6866;50.778;7.206;2022-07-23T00:24:19;19.55;;;14.73;;
13590;SDS011;6866;50.778;7.206;2022-07-23T00:26:45;19.23;;;13.52;;
13590;SDS011;6866;50.778;7.206;2022-07-23T00:29:10;20.98;;;14.48;;
13590;SDS011;6866;50.778;7.206;2022-07-23T00:31:36;19.05;;;13.50;;
13590;SDS011;6866;50.778;7.206;2022-07-23T00:34:01;22.48;;;14.10;;
13590;SDS011;6866;50.778;7.206;2022-07-23T00:36:27;23.77;;;13.57;;
13590;SDS011;6866;50.778;7.206;2022-07-23T00:38:53;19.95;;;13.38;;
13590;SDS011;6866;50.778;7.206;2022-07-23T00:41:19;21.55;;;14.25;;
13590;SDS011;6866;50.778;7.206;2022-07-23T00:43:44;18.45;;;13.30;;
13590;SDS011;6866;50.778;7.206;2022-07-23T00:46:10;19.33;;;13.13;;
13590;SDS011;6866;50.778;7.206;2022-07-23T00:48:36;17.38;;;13.55;;
13590;SDS011;6866;50.778;7.206;2022-07-23T00:51:01;15.10;;;12.27;;
13590;SDS011;6866;50.778;7.206;2022-07-23T00:53:27;22.50;;;12.95;;
13590;SDS011;6866;50.778;7.206;2022-07-23T00:55:53;22.45;;;13.52;;
13590;SDS011;6866;50.778;7.206;2022-07-23T00:58:19;17.23;;;12.88;;
13590;SDS011;6866;50.778;7.206;2022-07-23T01:03:20;18.52;;;13.68;;
13590;SDS011;6866;50.778;7.206;2022-07-23T01:05:47;20.48;;;13.10;;
13590;SDS011;6866;50.778;7.206;2022-07-23T01:08:12;18.23;;;13.40;;
13590;SDS011;6866;50.778;7.206;2022-07-23T01:10:38;17.70;;;12.70;;
13590;SDS011;6866;50.778;7.206;2022-07-23T01:13:08;18.88;;;13.75;;
13590;SDS011;6866;50.778;7.206;2022-07-23T01:15:35;19.05;;;13.57;;
13590;SDS011;6866;50.778;7.206;2022-07-23T01:18:02;21.45;;;14.52;;
13590;SDS011;6866;50.778;7.206;2022-07-23T01:20:29;20.38;;;14.25;;
13590;SDS011;6866;50.778;7.206;2022-07-23T01:22:55;20.42;;;14.32;;
13590;SDS011;6866;50.778;7.206;2022-07-23T01:25:21;21.00;;;13.75;;
13590;SDS011;6866;50.778;7.206;2022-07-23T01:27:47;20.40;;;13.88;;
13590;SDS011;6866;50.778;7.206;2022-07-23T01:30:13;20.27;;;14.88;;
13590;SDS011;6866;50.778;7.206;2022-07-23T01:32:40;21.70;;;14.70;;
13590;SDS011;6866;50.778;7.206;2022-07-23T01:35:06;19.98;;;15.35;;
13590;SDS011;6866;50.778;7.206;2022-07-23T01:37:32;19.25;;;14.90;;
13590;SDS011;6866;50.778;7.206;2022-07-23T01:39:58;19.02;;;14.25;;
13590;SDS011;6866;50.778;7.206;2022-07-23T01:42:24;24.10;;;16.10;;
13590;SDS011;6866;50.778;7.206;2022-07-23T01:44:50;21.50;;;14.70;;
13590;SDS011;6866;50.778;7.206;2022-07-23T01:47:15;23.73;;;15.90;;
13590;SDS011;6866;50.778;7.206;2022-07-23T01:49:41;21.95;;;15.30;;
13590;SDS011;6866;50.778;7.206;2022-07-23T01:52:06;20.42;;;15.05;;
13590;SDS011;6866;50.778;7.206;2022-07-23T01:54:36;22.35;;;14.80;;
13590;SDS011;6866;50.778;7.206;2022-07-23T01:57:03;19.50;;;14.50;;
13590;SDS011;6866;50.778;7.206;2022-07-23T01:59:29;19.48;;;13.68;;
13590;SDS011;6866;50.778;7.206;2022-07-23T02:01:54;22.60;;;15.10;;
13590;SDS011;6866;50.778;7.206;2022-07-23T02:04:21;23.42;;;16.10;;
13590;SDS011;6866;50.778;7.206;2022-07-23T02:06:47;21.80;;;15.15;;
13590;SDS011;6866;50.778;7.206;2022-07-23T02:09:13;22.20;;;15.10;;
13590;SDS011;6866;50.778;7.206;2022-07-23T02:11:39;23.38;;;16.40;;
13590;SDS011;6866;50.778;7.206;2022-07-23T02:14:05;23.15;;;15.88;;
13590;SDS011;6866;50.778;7.206;2022-07-23T02:16:31;25.48;;;16.52;;
13590;SDS011;6866;50.778;7.206;2022-07-23T02:18:57;21.63;;;16.35;;
13590;SDS011;6866;50.778;7.206;2022-07-23T02:21:22;25.63;;;16.75;;
13590;SDS011;6866;50.778;7.206;2022-07-23T02:23:48;24.30;;;17.10;;
13590;SDS011;6866;50.778;7.206;2022-07-23T02:26:14;24.83;;;15.48;;
13590;SDS011;6866;50.778;7.206;2022-07-23T02:28:39;20.63;;;16.27;;
13590;SDS011;6866;50.778;7.206;2022-07-23T02:31:05;21.75;;;16.35;;
13590;SDS011;6866;50.778;7.206;2022-07-23T02:33:31;24.75;;;17.13;;
13590;SDS011;6866;50.778;7.206;2022-07-23T02:35:57;22.55;;;15.55;;
13590;SDS011;6866;50.778;7.206;2022-07-23T02:38:23;24.88;;;16.90;;
13590;SDS011;6866;50.778;7.206;2022-07-23T02:40:49;24.00;;;16.75;;
13590;SDS011;6866;50.778;7.206;2022-07-23T02:43:14;24.85;;;16.98;;
13590;SDS011;6866;50.778;7.206;2022-07-23T02:45:40;35.38;;;16.98;;
13590;SDS011;6866;50.778;7.206;2022-07-23T02:48:05;25.48;;;16.77;;
13590;SDS011;6866;50.778;7.206;2022-07-23T02:50:31;23.42;;;16.50;;
13590;SDS011;6866;50.778;7.206;2022-07-23T02:52:56;23.33;;;16.20;;
13590;SDS011;6866;50.778;7.206;2022-07-23T02:55:22;25.15;;;16.83;;
13590;SDS011;6866;50.778;7.206;2022-07-23T02:57:48;22.92;;;15.95;;
13590;SDS011;6866;50.778;7.206;2022-07-23T03:00:13;28.58;;;17.25;;
13590;SDS011;6866;50.778;7.206;2022-07-23T03:02:39;22.52;;;16.60;;
13590;SDS011;6866;50.778;7.206;2022-07-23T03:05:04;22.63;;;16.65;;
13590;SDS011;6866;50.778;7.206;2022-07-23T03:07:30;22.35;;;16.40;;
13590;SDS011;6866;50.778;7.206;2022-07-23T03:09:56;23.92;;;17.23;;
13590;SDS011;6866;50.778;7.206;2022-07-23T03:12:21;25.65;;;17.27;;
13590;SDS011;6866;50.778;7.206;2022-07-23T03:14:47;25.92;;;17.05;;
13590;SDS011;6866;50.778;7.206;2022-07-23T03:17:12;22.70;;;16.55;;
13590;SDS011;6866;50.778;7.206;2022-07-23T03:19:38;28.42;;;16.70;;
13590;SDS011;6866;50.778;7.206;2022-07-23T03:22:04;24.60;;;18.02;;
13590;SDS011;6866;50.778;7.206;2022-07-23T03:24:30;26.35;;;17.70;;
13590;SDS011;6866;50.778;7.206;2022-07-23T03:27:14;24.33;;;16.60;;
13590;SDS011;6866;50.778;7.206;2022-07-23T03:29:39;27.17;;;17.30;;
13590;SDS011;6866;50.778;7.206;2022-07-23T03:32:06;25.83;;;17.38;;
13590;SDS011;6866;50.778;7.206;2022-07-23T03:34:32;25.70;;;17.08;;
13590;SDS011;6866;50.778;7.206;2022-07-23T03:36:57;24.83;;;17.48;;
13590;SDS011;6866;50.778;7.206;2022-07-23T03:39:23;23.15;;;17.73;;
13590;SDS011;6866;50.778;7.206;2022-07-23T03:41:48;25.05;;;17.55;;
13590;SDS011;6866;50.778;7.206;2022-07-23T03:44:14;26.40;;;18.23;;
13590;SDS011;6866;50.778;7.206;2022-07-23T03:46:39;24.58;;;16.90;;
13590;SDS011;6866;50.778;7.206;2022-07-23T03:49:05;24.50;;;16.98;;
13590;SDS011;6866;50.778;7.206;2022-07-23T03:51:30;22.92;;;17.27;;
13590;SDS011;6866;50.778;7.206;2022-07-23T03:53:57;24.75;;;17.13;;
13590;SDS011;6866;50.778;7.206;2022-07-23T03:56:22;26.45;;;19.00;;
13590;SDS011;6866;50.778;7.206;2022-07-23T03:58:48;27.50;;;17.30;;
13590;SDS011;6866;50.778;7.206;2022-07-23T04:01:13;23.05;;;16.38;;
13590;SDS011;6866;50.778;7.206;2022-07-23T04:03:39;27.80;;;17.88;;
13590;SDS011;6866;50.778;7.206;2022-07-23T04:06:05;26.38;;;17.70;;
13590;SDS011;6866;50.778;7.206;2022-07-23T04:08:31;21.25;;;15.63;;
13590;SDS011;6866;50.778;7.206;2022-07-23T04:10:56;24.02;;;16.33;;
13590;SDS011;6866;50.778;7.206;2022-07-23T04:13:22;22.75;;;15.35;;
13590;SDS011;6866;50.778;7.206;2022-07-23T04:15:47;22.92;;;15.43;;
13590;SDS011;6866;50.778;7.206;2022-07-23T04:18:13;21.17;;;15.73;;
13590;SDS011;6866;50.778;7.206;2022-07-23T04:20:42;22.90;;;16.27;;
13590;SDS011;6866;50.778;7.206;2022-07-23T04:23:08;22.73;;;15.35;;
13590;SDS011;6866;50.778;7.206;2022-07-23T04:25:34;24.70;;;16.73;;
13590;SDS011;6866;50.778;7.206;2022-07-23T04:28:00;24.17;;;16.58;;
13590;SDS011;6866;50.778;7.206;2022-07-23T04:30:25;21.90;;;16.20;;
13590;SDS011;6866;50.778;7.206;2022-07-23T04:32:51;25.45;;;17.20;;
13590;SDS011;6866;50.778;7.206;2022-07-23T04:35:17;25.55;;;17.88;;
13590;SDS011;6866;50.778;7.206;2022-07-23T04:37:42;25.75;;;18.38;;
13590;SDS011;6866;50.778;7.206;2022-07-23T04:40:08;28.13;;;18.55;;
13590;SDS011;6866;50.778;7.206;2022-07-23T04:42:34;30.25;;;19.63;;
13590;SDS011;6866;50.778;7.206;2022-07-23T04:44:59;31.73;;;19.00;;
13590;SDS011;6866;50.778;7.206;2022-07-23T04:47:25;29.85;;;19.75;;
13590;SDS011;6866;50.778;7.206;2022-07-23T04:49:50;33.05;;;20.42;;
13590;SDS011;6866;50.778;7.206;2022-07-23T04:52:16;31.23;;;20.92;;
13590;SDS011;6866;50.778;7.206;2022-07-23T04:54:42;30.70;;;19.85;;
13590;SDS011;6866;50.778;7.206;2022-07-23T04:57:07;36.88;;;20.60;;
13590;SDS011;6866;50.778;7.206;2022-07-23T04:59:32;33.15;;;21.85;;
13590;SDS011;6866;50.778;7.206;2022-07-23T05:01:58;34.33;;;21.48;;
13590;SDS011;6866;50.778;7.206;2022-07-23T05:04:23;31.40;;;20.40;;
13590;SDS011;6866;50.778;7.206;2022-07-23T05:06:49;33.75;;;22.65;;
13590;SDS011;6866;50.778;7.206;2022-07-23T05:09:14;30.67;;;20.75;;
13590;SDS011;6866;50.778;7.206;2022-07-23T05:11:40;32.67;;;21.15;;
13590;SDS011;6866;50.778;7.206;2022-07-23T05:14:06;30.20;;;21.48;;
13590;SDS011;6866;50.778;7.206;2022-07-23T05:16:31;30.17;;;20.25;;
13590;SDS011;6866;50.778;7.206;2022-07-23T05:18:57;29.35;;;19.08;;
13590;SDS011;6866;50.778;7.206;2022-07-23T05:21:22;29.58;;;19.45;;
13590;SDS011;6866;50.778;7.206;2022-07-23T05:23:48;28.83;;;18.88;;
13590;SDS011;6866;50.778;7.206;2022-07-23T05:26:13;27.65;;;18.20;;
13590;SDS011;6866;50.778;7.206;2022-07-23T05:28:39;25.02;;;17.15;;
13590;SDS011;6866;50.778;7.206;2022-07-23T05:31:04;22.90;;;16.83;;
13590;SDS011;6866;50.778;7.206;2022-07-23T05:33:30;24.73;;;17.02;;
13590;SDS011;6866;50.778;7.206;2022-07-23T05:36:02;25.58;;;15.90;;
13590;SDS011;6866;50.778;7.206;2022-07-23T05:38:29;22.67;;;15.88;;
13590;SDS011;6866;50.778;7.206;2022-07-23T05:40:54;24.35;;;16.20;;
13590;SDS011;6866;50.778;7.206;2022-07-23T05:43:20;23.38;;;15.77;;
13590;SDS011;6866;50.778;7.206;2022-07-23T05:45:46;25.05;;;16.08;;
13590;SDS011;6866;50.778;7.206;2022-07-23T05:48:11;29.70;;;16.30;;
13590;SDS011;6866;50.778;7.206;2022-07-23T05:50:37;21.15;;;14.80;;
13590;SDS011;6866;50.778;7.206;2022-07-23T05:53:03;22.33;;;14.93;;
13590;SDS011;6866;50.778;7.206;2022-07-23T05:55:29;22.33;;;15.60;;
13590;SDS011;6866;50.778;7.206;2022-07-23T05:57:56;22.92;;;14.65;;
13590;SDS011;6866;50.778;7.206;2022-07-23T06:00:22;21.08;;;14.45;;
13590;SDS011;6866;50.778;7.206;2022-07-23T06:02:48;21.58;;;13.98;;
13590;SDS011;6866;50.778;7.206;2022-07-23T06:05:14;18.58;;;13.20;;
13590;SDS011;6866;50.778;7.206;2022-07-23T06:07:40;22.48;;;15.25;;
13590;SDS011;6866;50.778;7.206;2022-07-23T06:10:05;21.20;;;15.85;;
13590;SDS011;6866;50.778;7.206;2022-07-23T06:12:31;21.95;;;15.88;;
13590;SDS011;6866;50.778;7.206;2022-07-23T06:14:57;23.48;;;15.52;;
13590;SDS011;6866;50.778;7.206;2022-07-23T06:17:23;23.48;;;15.40;;
13590;SDS011;6866;50.778;7.206;2022-07-23T06:19:48;23.42;;;15.77;;
13590;SDS011;6866;50.778;7.206;2022-07-23T06:22:14;21.42;;;15.43;;
13590;SDS011;6866;50.778;7.206;2022-07-23T06:24:39;23.27;;;15.55;;
13590;SDS011;6866;50.778;7.206;2022-07-23T06:27:05;20.83;;;13.63;;
13590;SDS011;6866;50.778;7.206;2022-07-23T06:29:30;18.25;;;13.10;;
13590;SDS011;6866;50.778;7.206;2022-07-23T06:31:56;17.67;;;13.48;;
13590;SDS011;6866;50.778;7.206;2022-07-23T06:34:21;17.98;;;12.00;;
13590;SDS011;6866;50.778;7.206;2022-07-23T06:36:47;17.58;;;12.57;;
13590;SDS011;6866;50.778;7.206;2022-07-23T06:39:12;17.33;;;12.32;;
13590;SDS011;6866;50.778;7.206;2022-07-23T06:41:38;19.25;;;12.05;;
13590;SDS011;6866;50.778;7.206;2022-07-23T06:44:03;16.38;;;12.52;;
13590;SDS011;6866;50.778;7.206;2022-07-23T06:46:29;15.93;;;12.30;;
13590;SDS011;6866;50.778;7.206;2022-07-23T06:48:55;14.70;;;10.82;;
13590;SDS011;6866;50.778;7.206;2022-07-23T06:51:20;14.63;;;10.82;;
13590;SDS011;6866;50.778;7.206;2022-07-23T06:53:46;14.60;;;10.90;;
13590;SDS011;6866;50.778;7.206;2022-07-23T06:56:12;15.05;;;11.27;;
13590;SDS011;6866;50.778;7.206;2022-07-23T06:58:37;13.77;;;10.73;;
13590;SDS011;6866;50.778;7.206;2022-07-23T07:01:03;14.68;;;10.55;;
13590;SDS011;6866;50.778;7.206;2022-07-23T07:03:28;14.40;;;10.40;;
13590;SDS011;6866;50.778;7.206;2022-07-23T07:05:54;14.18;;;9.98;;
13590;SDS011;6866;50.778;7.206;2022-07-23T07:08:22;13.23;;;10.38;;
13590;SDS011;6866;50.778;7.206;2022-07-23T07:10:48;15.93;;;10.25;;
13590;SDS011;6866;50.778;7.206;2022-07-23T07:13:14;9.98;;;8.05;;
13590;SDS011;6866;50.778;7.206;2022-07-23T07:15:42;13.43;;;9.50;;
13590;SDS011;6866;50.778;7.206;2022-07-23T07:18:08;12.68;;;8.75;;
13590;SDS011;6866;50.778;7.206;2022-07-23T07:20:33;14.75;;;9.30;;
13590;SDS011;6866;50.778;7.206;2022-07-23T07:22:59;12.38;;;9.82;;
13590;SDS011;6866;50.778;7.206;2022-07-23T07:25:24;12.25;;;9.25;;
13590;SDS011;6866;50.778;7.206;2022-07-23T07:27:50;11.70;;;8.20;;
13590;SDS011;6866;50.778;7.206;2022-07-23T07:30:15;8.63;;;6.68;;
13590;SDS011;6866;50.778;7.206;2022-07-23T07:32:41;9.30;;;6.82;;
13590;SDS011;6866;50.778;7.206;2022-07-23T07:35:07;9.60;;;7.32;;
13590;SDS011;6866;50.778;7.206;2022-07-23T07:37:33;10.30;;;6.47;;
13590;SDS011;6866;50.778;7.206;2022-07-23T07:39:59;9.43;;;6.07;;
13590;SDS011;6866;50.778;7.206;2022-07-23T07:42:24;8.95;;;5.97;;
13590;SDS011;6866;50.778;7.206;2022-07-23T07:44:50;8.55;;;5.43;;
13590;SDS011;6866;50.778;7.206;2022-07-23T07:47:16;10.25;;;5.50;;
13590;SDS011;6866;50.778;7.206;2022-07-23T07:49:42;10.43;;;5.90;;
13590;SDS011;6866;50.778;7.206;2022-07-23T07:52:08;9.40;;;6.05;;
13590;SDS011;6866;50.778;7.206;2022-07-23T07:54:33;8.20;;;5.60;;
13590;SDS011;6866;50.778;7.206;2022-07-23T07:56:59;8.63;;;5.10;;
13590;SDS011;6866;50.778;7.206;2022-07-23T07:59:25;8.13;;;5.03;;
13590;SDS011;6866;50.778;7.206;2022-07-23T08:01:50;7.75;;;4.88;;
13590;SDS011;6866;50.778;7.206;2022-07-23T08:04:16;8.75;;;5.75;;
13590;SDS011;6866;50.778;7.206;2022-07-23T08:06:42;7.95;;;4.28;;
13590;SDS011;6866;50.778;7.206;2022-07-23T08:09:07;14.13;;;5.25;;
13590;SDS011;6866;50.778;7.206;2022-07-23T08:11:33;10.20;;;4.90;;
13590;SDS011;6866;50.778;7.206;2022-07-23T08:13:58;7.57;;;4.22;;
13590;SDS011;6866;50.778;7.206;2022-07-23T08:16:24;7.97;;;4.75;;
13590;SDS011;6866;50.778;7.206;2022-07-23T08:18:49;9.48;;;5.18;;
13590;SDS011;6866;50.778;7.206;2022-07-23T08:21:15;8.95;;;4.20;;
13590;SDS011;6866;50.778;7.206;2022-07-23T08:23:41;7.88;;;4.15;;
13590;SDS011;6866;50.778;7.206;2022-07-23T08:26:06;7.75;;;4.00;;
13590;SDS011;6866;50.778;7.206;2022-07-23T08:28:32;7.05;;;4.45;;
13590;SDS011;6866;50.778;7.206;2022-07-23T08:30:58;8.18;;;4.80;;
13590;SDS011;6866;50.778;7.206;2022-07-23T08:33:24;8.45;;;4.53;;
13590;SDS011;6866;50.778;7.206;2022-07-23T08:35:50;8.23;;;4.07;;
13590;SDS011;6866;50.778;7.206;2022-07-23T08:38:18;7.85;;;4.30;;
13590;SDS011;6866;50.778;7.206;2022-07-23T08:40:47;8.05;;;4.28;;
13590;SDS011;6866;50.778;7.206;2022-07-23T08:43:19;7.13;;;4.53;;
13590;SDS011;6866;50.778;7.206;2022-07-23T08:48:14;6.95;;;4.22;;
13590;SDS011;6866;50.778;7.206;2022-07-23T08:50:45;7.25;;;4.55;;
13590;SDS011;6866;50.778;7.206;2022-07-23T08:53:12;8.15;;;4.95;;
13590;SDS011;6866;50.778;7.206;2022-07-23T08:55:39;7.57;;;4.63;;
13590;SDS011;6866;50.778;7.206;2022-07-23T08:58:07;8.13;;;5.55;;
13590;SDS011;6866;50.778;7.206;2022-07-23T09:00:33;9.52;;;5.22;;
13590;SDS011;6866;50.778;7.206;2022-07-23T09:02:59;9.02;;;5.10;;
13590;SDS011;6866;50.778;7.206;2022-07-23T09:05:24;8.82;;;5.57;;
13590;SDS011;6866;50.778;7.206;2022-07-23T09:10:51;9.40;;;4.95;;
13590;SDS011;6866;50.778;7.206;2022-07-23T09:16:05;10.32;;;5.22;;
13590;SDS011;6866;50.778;7.206;2022-07-23T09:18:38;9.93;;;6.20;;
13590;SDS011;6866;50.778;7.206;2022-07-23T09:31:42;11.25;;;6.57;;
13590;SDS011;6866;50.778;7.206;2022-07-23T09:34:22;8.57;;;5.70;;
13590;SDS011;6866;50.778;7.206;2022-07-23T09:36:48;8.85;;;5.10;;
13590;SDS011;6866;50.778;7.206;2022-07-23T09:39:16;10.23;;;4.82;;
13590;SDS011;6866;50.778;7.206;2022-07-23T09:59:27;9.45;;;6.00;;
13590;SDS011;6866;50.778;7.206;2022-07-23T10:01:55;8.52;;;4.88;;
13590;SDS011;6866;50.778;7.206;2022-07-23T10:04:24;7.30;;;4.40;;
13590;SDS011;6866;50.778;7.206;2022-07-23T10:06:51;6.68;;;3.90;;
13590;SDS011;6866;50.778;7.206;2022-07-23T10:09:20;8.73;;;4.60;;
13590;SDS011;6866;50.778;7.206;2022-07-23T10:11:58;7.45;;;4.85;;
13590;SDS011;6866;50.778;7.206;2022-07-23T10:14:41;8.00;;;5.18;;
13590;SDS011;6866;50.778;7.206;2022-07-23T10:17:07;8.85;;;6.03;;
13590;SDS011;6866;50.778;7.206;2022-07-23T10:19:34;9.20;;;5.95;;
13590;SDS011;6866;50.778;7.206;2022-07-23T10:22:00;9.40;;;5.63;;
13590;SDS011;6866;50.778;7.206;2022-07-23T10:24:40;8.05;;;4.63;;
13590;SDS011;6866;50.778;7.206;2022-07-23T10:35:50;10.23;;;5.28;;
13590;SDS011;6866;50.778;7.206;2022-07-23T10:40:59;8.27;;;4.80;;
13590;SDS011;6866;50.778;7.206;2022-07-23T10:45:52;7.82;;;4.35;;
13590;SDS011;6866;50.778;7.206;2022-07-23T10:48:19;9.15;;;4.90;;
13590;SDS011;6866;50.778;7.206;2022-07-23T10:51:12;9.20;;;4.65;;
13590;SDS011;6866;50.778;7.206;2022-07-23T10:53:53;8.48;;;5.40;;
13590;SDS011;6866;50.778;7.206;2022-07-23T10:59:19;6.20;;;3.83;;
13590;SDS011;6866;50.778;7.206;2022-07-23T11:01:46;6.43;;;4.00;;
13590;SDS011;6866;50.778;7.206;2022-07-23T11:17:22;7.55;;;4.22;;
13590;SDS011;6866;50.778;7.206;2022-07-23T11:27:47;5.05;;;3.13;;
13590;SDS011;6866;50.778;7.206;2022-07-23T11:32:52;7.15;;;4.30;;
13590;SDS011;6866;50.778;7.206;2022-07-23T11:35:19;6.90;;;4.07;;
13590;SDS011;6866;50.778;7.206;2022-07-23T11:37:46;6.88;;;4.57;;
13590;SDS011;6866;50.778;7.206;2022-07-23T11:40:13;6.95;;;4.53;;
13590;SDS011;6866;50.778;7.206;2022-07-23T11:42:54;8.35;;;4.20;;
13590;SDS011;6866;50.778;7.206;2022-07-23T11:45:22;8.83;;;4.50;;
13590;SDS011;6866;50.778;7.206;2022-07-23T11:47:49;6.28;;;4.38;;
13590;SDS011;6866;50.778;7.206;2022-07-23T11:50:14;7.47;;;4.22;;
13590;SDS011;6866;50.778;7.206;2022-07-23T11:52:40;6.30;;;4.23;;
13590;SDS011;6866;50.778;7.206;2022-07-23T11:55:06;9.43;;;4.07;;
13590;SDS011;6866;50.778;7.206;2022-07-23T11:57:35;6.30;;;3.92;;
13590;SDS011;6866;50.778;7.206;2022-07-23T12:02:36;6.20;;;3.95;;
13590;SDS011;6866;50.778;7.206;2022-07-23T12:05:03;5.78;;;3.40;;
13590;SDS011;6866;50.778;7.206;2022-07-23T12:17:20;7.57;;;4.30;;
13590;SDS011;6866;50.778;7.206;2022-07-23T12:19:51;7.68;;;4.60;;
13590;SDS011;6866;50.778;7.206;2022-07-23T12:22:17;7.35;;;4.45;;
13590;SDS011;6866;50.778;7.206;2022-07-23T12:24:56;6.88;;;3.92;;
13590;SDS011;6866;50.778;7.206;2022-07-23T12:27:23;7.03;;;4.37;;
13590;SDS011;6866;50.778;7.206;2022-07-23T12:29:49;7.22;;;4.25;;
13590;SDS011;6866;50.778;7.206;2022-07-23T12:32:18;5.60;;;3.60;;
13590;SDS011;6866;50.778;7.206;2022-07-23T12:34:48;6.30;;;4.28;;
13590;SDS011;6866;50.778;7.206;2022-07-23T12:37:28;6.53;;;4.07;;
13590;SDS011;6866;50.778;7.206;2022-07-23T12:42:57;8.27;;;4.30;;
13590;SDS011;6866;50.778;7.206;2022-07-23T12:45:44;7.85;;;3.90;;
13590;SDS011;6866;50.778;7.206;2022-07-23T12:48:16;6.15;;;4.10;;
13590;SDS011;6866;50.778;7.206;2022-07-23T12:50:43;7.18;;;4.60;;
13590;SDS011;6866;50.778;7.206;2022-07-23T12:53:22;7.33;;;4.30;;
13590;SDS011;6866;50.778;7.206;2022-07-23T12:56:04;6.28;;;3.95;;
13590;SDS011;6866;50.778;7.206;2022-07-23T13:01:07;6.63;;;4.10;;
13590;SDS011;6866;50.778;7.206;2022-07-23T13:03:38;7.43;;;4.20;;
13590;SDS011;6866;50.778;7.206;2022-07-23T13:06:06;7.28;;;4.30;;
13590;SDS011;6866;50.778;7.206;2022-07-23T13:08:34;6.27;;;4.00;;
13590;SDS011;6866;50.778;7.206;2022-07-23T13:11:03;7.80;;;4.40;;
13590;SDS011;6866;50.778;7.206;2022-07-23T13:13:31;6.80;;;4.93;;
13590;SDS011;6866;50.778;7.206;2022-07-23T13:15:57;8.10;;;4.72;;
13590;SDS011;6866;50.778;7.206;2022-07-23T13:18:23;6.88;;;4.30;;
13590;SDS011;6866;50.778;7.206;2022-07-23T13:20:50;6.65;;;4.60;;
13590;SDS011;6866;50.778;7.206;2022-07-23T13:23:16;6.85;;;4.40;;
13590;SDS011;6866;50.778;7.206;2022-07-23T13:25:43;7.40;;;4.37;;
13590;SDS011;6866;50.778;7.206;2022-07-23T13:30:34;7.80;;;4.60;;
13590;SDS011;6866;50.778;7.206;2022-07-23T13:57:16;8.70;;;4.65;;
13590;SDS011;6866;50.778;7.206;2022-07-23T13:59:42;7.40;;;4.77;;
13590;SDS011;6866;50.778;7.206;2022-07-23T14:02:07;6.68;;;4.85;;
13590;SDS011;6866;50.778;7.206;2022-07-23T14:04:33;7.50;;;4.45;;
13590;SDS011;6866;50.778;7.206;2022-07-23T14:06:59;7.37;;;4.50;;
13590;SDS011;6866;50.778;7.206;2022-07-23T14:09:24;7.23;;;4.77;;
13590;SDS011;6866;50.778;7.206;2022-07-23T14:11:50;6.65;;;4.78;;
13590;SDS011;6866;50.778;7.206;2022-07-23T14:14:17;7.00;;;4.50;;
13590;SDS011;6866;50.778;7.206;2022-07-23T14:16:43;6.43;;;4.70;;
13590;SDS011;6866;50.778;7.206;2022-07-23T14:48:14;7.80;;;4.80;;
13590;SDS011;6866;50.778;7.206;2022-07-23T14:50:40;8.20;;;4.70;;
13590;SDS011;6866;50.778;7.206;2022-07-23T14:57:57;7.82;;;4.07;;
13590;SDS011;6866;50.778;7.206;2022-07-23T15:00:23;8.10;;;3.97;;
13590;SDS011;6866;50.778;7.206;2022-07-23T15:02:49;6.20;;;4.25;;
13590;SDS011;6866;50.778;7.206;2022-07-23T15:10:06;6.47;;;3.78;;
13590;SDS011;6866;50.778;7.206;2022-07-23T15:12:32;6.22;;;3.47;;
13590;SDS011;6866;50.778;7.206;2022-07-23T15:14:58;7.13;;;3.60;;
13590;SDS011;6866;50.778;7.206;2022-07-23T15:17:24;9.65;;;3.95;;
13590;SDS011;6866;50.778;7.206;2022-07-23T15:24:41;7.07;;;3.40;;
13590;SDS011;6866;50.778;7.206;2022-07-23T15:27:07;10.63;;;4.35;;
13590;SDS011;6866;50.778;7.206;2022-07-23T15:29:32;5.90;;;3.53;;
13590;SDS011;6866;50.778;7.206;2022-07-23T15:31:58;8.13;;;3.40;;
13590;SDS011;6866;50.778;7.206;2022-07-23T15:34:24;6.75;;;3.50;;
13590;SDS011;6866;50.778;7.206;2022-07-23T15:36:50;5.20;;;3.42;;
13590;SDS011;6866;50.778;7.206;2022-07-23T15:39:16;7.15;;;3.58;;
13590;SDS011;6866;50.778;7.206;2022-07-23T15:41:41;6.75;;;3.72;;
13590;SDS011;6866;50.778;7.206;2022-07-23T15:44:07;6.20;;;3.30;;
13590;SDS011;6866;50.778;7.206;2022-07-23T15:46:32;6.65;;;3.70;;
13590;SDS011;6866;50.778;7.206;2022-07-23T15:48:58;6.75;;;3.20;;
13590;SDS011;6866;50.778;7.206;2022-07-23T15:51:23;5.85;;;3.35;;
13590;SDS011;6866;50.778;7.206;2022-07-23T15:53:49;5.82;;;3.28;;
13590;SDS011;6866;50.778;7.206;2022-07-23T15:56:14;6.63;;;3.60;;
13590;SDS011;6866;50.778;7.206;2022-07-23T15:58:40;6.28;;;3.83;;
13590;SDS011;6866;50.778;7.206;2022-07-23T16:01:05;6.32;;;3.28;;
13590;SDS011;6866;50.778;7.206;2022-07-23T16:03:33;5.28;;;3.55;;
13590;SDS011;6866;50.778;7.206;2022-07-23T16:05:59;5.43;;;3.53;;
13590;SDS011;6866;50.778;7.206;2022-07-23T16:08:25;7.47;;;3.22;;
13590;SDS011;6866;50.778;7.206;2022-07-23T16:10:51;6.28;;;3.17;;
13590;SDS011;6866;50.778;7.206;2022-07-23T16:13:17;7.65;;;3.20;;
13590;SDS011;6866;50.778;7.206;2022-07-23T16:15:42;7.75;;;3.58;;
13590;SDS011;6866;50.778;7.206;2022-07-23T16:18:08;5.15;;;3.03;;
13590;SDS011;6866;50.778;7.206;2022-07-23T16:20:35;5.07;;;3.13;;
13590;SDS011;6866;50.778;7.206;2022-07-23T16:23:02;7.80;;;3.30;;
13590;SDS011;6866;50.778;7.206;2022-07-23T16:25:28;5.90;;;3.13;;
13590;SDS011;6866;50.778;7.206;2022-07-23T16:27:54;5.47;;;3.05;;
13590;SDS011;6866;50.778;7.206;2022-07-23T16:30:20;5.63;;;3.13;;
13590;SDS011;6866;50.778;7.206;2022-07-23T16:32:45;5.53;;;3.03;;
13590;SDS011;6866;50.778;7.206;2022-07-23T16:35:11;5.05;;;3.05;;
13590;SDS011;6866;50.778;7.206;2022-07-23T16:37:39;6.75;;;3.08;;
13590;SDS011;6866;50.778;7.206;2022-07-23T16:40:06;4.68;;;2.97;;
13590;SDS011;6866;50.778;7.206;2022-07-23T16:42:33;5.88;;;2.95;;
13590;SDS011;6866;50.778;7.206;2022-07-23T16:44:59;5.20;;;3.03;;
13590;SDS011;6866;50.778;7.206;2022-07-23T16:47:25;5.00;;;3.00;;
13590;SDS011;6866;50.778;7.206;2022-07-23T16:49:51;5.63;;;2.85;;
13590;SDS011;6866;50.778;7.206;2022-07-23T16:52:17;9.30;;;3.08;;
13590;SDS011;6866;50.778;7.206;2022-07-23T16:54:42;4.20;;;2.90;;
13590;SDS011;6866;50.778;7.206;2022-07-23T16:57:08;6.15;;;2.85;;
13590;SDS011;6866;50.778;7.206;2022-07-23T16:59:34;7.53;;;3.00;;
13590;SDS011;6866;50.778;7.206;2022-07-23T17:02:00;14.93;;;4.78;;
13590;SDS011;6866;50.778;7.206;2022-07-23T17:04:25;5.60;;;2.97;;
13590;SDS011;6866;50.778;7.206;2022-07-23T17:06:51;6.25;;;2.90;;
13590;SDS011;6866;50.778;7.206;2022-07-23T17:09:17;6.45;;;3.28;;
13590;SDS011;6866;50.778;7.206;2022-07-23T17:11:42;5.32;;;2.97;;
13590;SDS011;6866;50.778;7.206;2022-07-23T17:14:08;6.43;;;3.10;;
13590;SDS011;6866;50.778;7.206;2022-07-23T17:16:34;5.95;;;3.05;;
13590;SDS011;6866;50.778;7.206;2022-07-23T17:19:00;9.02;;;3.17;;
13590;SDS011;6866;50.778;7.206;2022-07-23T17:21:26;6.25;;;2.95;;
13590;SDS011;6866;50.778;7.206;2022-07-23T17:23:51;6.50;;;3.03;;
13590;SDS011;6866;50.778;7.206;2022-07-23T17:26:17;7.47;;;3.30;;
13590;SDS011;6866;50.778;7.206;2022-07-23T17:28:43;5.65;;;2.90;;
13590;SDS011;6866;50.778;7.206;2022-07-23T17:31:08;7.75;;;3.03;;